createdAt,value
2023-01-29T00:02:05.783Z,30.93
2023-01-29T00:04:34.138Z,32.53
2023-01-29T00:07:03.205Z,35.10
2023-01-29T00:09:31.942Z,31.23
2023-01-29T00:11:59.736Z,31.67
2023-01-29T00:14:27.535Z,35.17
2023-01-29T00:16:55.437Z,31.63
2023-01-29T00:19:23.280Z,31.57
2023-01-29T00:21:50.997Z,32.10
2023-01-29T00:24:20.034Z,31.20
2023-01-29T00:26:49.241Z,33.63
2023-01-29T00:29:17.875Z,28.10
2023-01-29T00:31:46.141Z,32.53
2023-01-29T00:34:14.022Z,37.20
2023-01-29T00:36:44.252Z,35.03
2023-01-29T00:39:11.930Z,31.07
2023-01-29T00:41:58.581Z,31.47
2023-01-29T00:44:43.981Z,33.37
2023-01-29T00:47:30.906Z,32.77
2023-01-29T00:49:58.674Z,33.47
2023-01-29T00:52:26.381Z,36.70
2023-01-29T00:54:54.510Z,34.00
2023-01-29T00:57:23.964Z,33.17
2023-01-29T00:59:51.639Z,31.43
2023-01-29T01:02:37.562Z,30.40
2023-01-29T01:05:07.671Z,36.10
2023-01-29T01:07:35.429Z,32.50
2023-01-29T01:10:20.661Z,32.90
2023-01-29T01:12:51.686Z,32.13
2023-01-29T01:15:20.961Z,32.83
2023-01-29T01:17:49.625Z,33.37
2023-01-29T01:20:17.775Z,35.00
2023-01-29T01:22:45.613Z,32.27
2023-01-29T01:25:13.338Z,33.03
2023-01-29T01:27:41.575Z,33.03
2023-01-29T01:30:13.802Z,29.63
2023-01-29T01:32:42.054Z,32.03
2023-01-29T01:35:10.523Z,37.57
2023-01-29T01:37:38.767Z,36.90
2023-01-29T01:40:12.705Z,33.70
2023-01-29T01:42:40.796Z,34.57
2023-01-29T01:45:16.042Z,34.80
2023-01-29T01:47:48.213Z,32.50
2023-01-29T01:50:18.565Z,36.43
2023-01-29T01:52:48.495Z,33.47
2023-01-29T01:55:18.220Z,34.30
2023-01-29T01:57:48.973Z,32.27
2023-01-29T02:00:19.740Z,35.47
2023-01-29T02:03:05.401Z,33.27
2023-01-29T02:05:51.719Z,35.07
2023-01-29T02:08:39.409Z,35.00
2023-01-29T02:11:07.279Z,35.93
2023-01-29T02:13:35.063Z,32.10
2023-01-29T02:16:04.093Z,34.93
2023-01-29T02:18:37.953Z,35.30
2023-01-29T02:21:32.810Z,34.60
2023-01-29T02:24:28.476Z,36.57
2023-01-29T02:27:04.777Z,34.43
2023-01-29T02:29:39.337Z,32.87
2023-01-29T02:32:17.259Z,34.87
2023-01-29T02:35:07.995Z,31.47
2023-01-29T02:37:39.591Z,34.90
2023-01-29T02:40:14.803Z,32.33
2023-01-29T02:42:48.353Z,33.80
2023-01-29T02:45:20.423Z,40.93
2023-01-29T02:47:50.882Z,33.57
2023-01-29T02:50:21.649Z,31.57
2023-01-29T02:52:56.877Z,34.37
2023-01-29T02:55:28.280Z,33.10
2023-01-29T02:57:59.226Z,35.27
2023-01-29T03:00:31.447Z,35.63
2023-01-29T03:03:02.167Z,33.23
2023-01-29T03:05:33.843Z,38.27
2023-01-29T03:08:05.517Z,36.03
2023-01-29T03:10:36.554Z,34.23
2023-01-29T03:13:07.621Z,35.67
2023-01-29T03:15:42.765Z,34.37
2023-01-29T03:18:13.858Z,31.10
2023-01-29T03:20:47.975Z,34.27
2023-01-29T03:23:23.708Z,34.10
2023-01-29T03:26:10.512Z,40.00
2023-01-29T03:28:56.362Z,37.47
2023-01-29T03:31:44.488Z,37.07
2023-01-29T03:34:16.498Z,35.77
2023-01-29T03:36:48.241Z,36.93
2023-01-29T03:39:16.628Z,34.60
2023-01-29T03:41:47.640Z,36.83
2023-01-29T03:44:17.585Z,38.10
2023-01-29T03:46:50.150Z,36.80
2023-01-29T03:49:22.670Z,38.97
2023-01-29T03:51:56.393Z,35.90
2023-01-29T03:54:27.386Z,32.93
2023-01-29T03:56:58.990Z,30.23
2023-01-29T03:59:34.842Z,35.40
2023-01-29T04:02:06.009Z,35.27
2023-01-29T04:04:36.370Z,36.50
2023-01-29T04:07:07.549Z,34.90
2023-01-29T04:09:38.420Z,34.47
2023-01-29T04:12:09.692Z,32.83
2023-01-29T04:14:37.967Z,37.80
2023-01-29T04:17:09.892Z,35.63
2023-01-29T04:19:37.720Z,37.17
2023-01-29T04:22:08.374Z,40.57
2023-01-29T04:24:36.303Z,34.07
2023-01-29T04:27:20.835Z,37.57
2023-01-29T04:29:59.479Z,39.77
2023-01-29T04:32:32.985Z,35.53
2023-01-29T04:35:02.540Z,39.07
2023-01-29T04:37:38.426Z,33.53
2023-01-29T04:40:17.158Z,37.10
2023-01-29T04:42:50.374Z,36.20
2023-01-29T04:45:25.186Z,32.70
2023-01-29T04:48:01.332Z,37.23
2023-01-29T04:50:32.539Z,38.77
2023-01-29T04:53:03.592Z,37.40
2023-01-29T04:55:36.028Z,38.17
2023-01-29T04:58:08.036Z,35.67
2023-01-29T05:00:37.198Z,37.67
2023-01-29T05:03:09.686Z,40.53
2023-01-29T05:05:37.799Z,34.50
2023-01-29T05:08:06.119Z,36.13
2023-01-29T05:10:34.784Z,36.33
2023-01-29T05:13:04.621Z,36.03
2023-01-29T05:15:36.533Z,34.97
2023-01-29T05:18:08.919Z,35.70
2023-01-29T05:20:38.008Z,45.93
2023-01-29T05:23:06.000Z,34.30
2023-01-29T05:25:35.186Z,34.10
2023-01-29T05:28:05.111Z,36.57
2023-01-29T05:30:34.306Z,37.33
2023-01-29T05:33:02.067Z,36.43
2023-01-29T05:35:31.631Z,35.87
2023-01-29T05:37:59.468Z,32.03
2023-01-29T05:40:27.177Z,34.57
2023-01-29T05:42:54.886Z,33.70
2023-01-29T05:45:22.647Z,31.97
2023-01-29T05:47:50.307Z,38.30
2023-01-29T05:50:18.625Z,33.20
2023-01-29T05:52:47.866Z,35.03
2023-01-29T05:55:15.535Z,36.77
2023-01-29T05:57:43.205Z,35.67
2023-01-29T06:00:13.172Z,33.87
2023-01-29T06:02:41.048Z,32.37
2023-01-29T06:05:09.902Z,32.40
2023-01-29T06:07:37.588Z,34.00
2023-01-29T06:10:07.384Z,33.27
2023-01-29T06:12:35.071Z,37.60
2023-01-29T06:15:02.725Z,33.83
2023-01-29T06:17:30.439Z,34.40
2023-01-29T06:19:58.097Z,31.97
2023-01-29T06:22:25.797Z,33.80
2023-01-29T06:24:53.422Z,36.53
2023-01-29T06:27:22.490Z,32.40
2023-01-29T06:29:50.306Z,34.63
2023-01-29T06:32:18.123Z,37.73
2023-01-29T06:34:47.893Z,33.77
2023-01-29T06:37:16.363Z,34.40
2023-01-29T06:39:44.434Z,35.07
2023-01-29T06:42:12.103Z,33.60
2023-01-29T06:44:41.172Z,32.93
2023-01-29T06:47:08.946Z,34.03
2023-01-29T06:49:36.634Z,32.87
2023-01-29T06:52:04.287Z,35.07
2023-01-29T06:54:31.988Z,36.17
2023-01-29T06:56:59.616Z,34.93
2023-01-29T06:59:27.421Z,33.13
2023-01-29T07:01:56.499Z,33.43
2023-01-29T07:04:24.260Z,34.70
2023-01-29T07:06:51.954Z,30.93
2023-01-29T07:09:19.634Z,32.73
2023-01-29T07:11:48.022Z,30.97
2023-01-29T07:14:15.670Z,37.90
2023-01-29T07:16:43.416Z,36.53
2023-01-29T07:19:12.702Z,35.47
2023-01-29T07:21:40.402Z,36.13
2023-01-29T07:24:08.578Z,35.07
2023-01-29T07:26:36.274Z,40.20
2023-01-29T07:29:05.905Z,35.57
2023-01-29T07:31:33.647Z,38.60
2023-01-29T07:34:01.437Z,39.00
2023-01-29T07:36:30.759Z,35.53
2023-01-29T07:38:58.476Z,38.13
2023-01-29T07:41:26.153Z,36.17
2023-01-29T07:43:53.810Z,36.87
2023-01-29T07:46:21.439Z,38.07
2023-01-29T07:48:49.167Z,36.03
2023-01-29T07:51:18.458Z,39.27
2023-01-29T07:53:47.823Z,35.63
2023-01-29T07:56:15.637Z,38.37
2023-01-29T07:58:43.334Z,34.80
2023-01-29T08:01:11.190Z,35.70
2023-01-29T08:03:39.032Z,33.77
2023-01-29T08:06:07.056Z,33.90
2023-01-29T08:08:34.750Z,34.70
2023-01-29T08:11:05.590Z,34.60
2023-01-29T08:13:33.990Z,33.30
2023-01-29T08:16:02.392Z,39.10
2023-01-29T08:18:31.423Z,35.93
2023-01-29T08:21:02.280Z,35.67
2023-01-29T08:23:29.973Z,34.17
2023-01-29T08:25:57.724Z,31.23
2023-01-29T08:28:26.870Z,33.77
2023-01-29T08:30:54.885Z,29.70
2023-01-29T08:33:29.786Z,31.20
2023-01-29T08:36:01.263Z,34.97
2023-01-29T08:38:28.938Z,34.40
2023-01-29T08:40:56.591Z,33.90
2023-01-29T08:43:24.228Z,29.63
2023-01-29T08:45:53.336Z,30.73
2023-01-29T08:48:21.094Z,33.47
2023-01-29T08:50:48.800Z,35.80
2023-01-29T08:53:16.524Z,36.30
2023-01-29T08:55:44.232Z,31.90
2023-01-29T08:58:12.996Z,30.67
2023-01-29T09:00:40.685Z,33.87
2023-01-29T09:03:10.102Z,33.73
2023-01-29T09:05:38.854Z,32.93
2023-01-29T09:08:07.251Z,33.60
2023-01-29T09:10:35.404Z,31.13
2023-01-29T09:13:03.069Z,33.17
2023-01-29T09:15:30.809Z,37.67
2023-01-29T09:17:58.529Z,32.60
2023-01-29T09:20:27.521Z,33.07
2023-01-29T09:22:56.723Z,34.53
2023-01-29T09:25:24.389Z,30.07
2023-01-29T09:27:52.063Z,31.63
2023-01-29T09:30:20.005Z,33.30
2023-01-29T09:32:55.275Z,33.73
2023-01-29T09:35:23.820Z,33.30
2023-01-29T09:37:53.067Z,30.23
2023-01-29T09:40:26.783Z,36.60
2023-01-29T09:42:58.492Z,35.33
2023-01-29T09:45:27.784Z,32.63
2023-01-29T09:47:59.003Z,33.47
2023-01-29T09:50:31.440Z,51.23
2023-01-29T09:53:03.893Z,89.10
2023-01-29T09:55:35.221Z,58.63
2023-01-29T09:58:07.602Z,48.50
2023-01-29T10:00:38.900Z,32.17
2023-01-29T10:03:21.955Z,33.43
2023-01-29T10:05:57.029Z,37.03
2023-01-29T10:08:46.904Z,40.40
2023-01-29T10:11:25.073Z,31.93
2023-01-29T10:14:00.897Z,44.97
2023-01-29T10:16:38.927Z,31.27
2023-01-29T10:19:26.255Z,32.30
2023-01-29T10:22:12.895Z,38.17
2023-01-29T10:24:46.647Z,32.37
2023-01-29T10:27:16.563Z,34.33
2023-01-29T10:29:45.503Z,29.93
2023-01-29T10:32:16.685Z,30.70
2023-01-29T10:34:48.087Z,32.57
2023-01-29T10:37:18.475Z,31.83
2023-01-29T10:39:47.653Z,32.63
2023-01-29T10:42:25.628Z,28.20
2023-01-29T10:45:04.779Z,30.07
2023-01-29T10:47:53.589Z,31.60
2023-01-29T10:50:29.683Z,29.13
2023-01-29T10:53:09.221Z,31.20
2023-01-29T10:55:48.889Z,31.20
2023-01-29T10:58:23.863Z,30.87
2023-01-29T11:00:52.272Z,34.10
2023-01-29T11:03:27.911Z,30.70
2023-01-29T11:06:01.145Z,31.20
2023-01-29T11:08:32.689Z,30.20
2023-01-29T11:11:08.367Z,33.03
2023-01-29T11:13:39.956Z,29.90
2023-01-29T11:16:09.960Z,32.90
2023-01-29T11:18:55.616Z,33.87
2023-01-29T11:21:24.499Z,31.87
2023-01-29T11:23:52.698Z,30.83
2023-01-29T11:26:23.948Z,35.90
2023-01-29T11:28:52.299Z,31.40
2023-01-29T11:31:23.004Z,34.07
2023-01-29T11:33:52.556Z,30.30
2023-01-29T11:36:32.775Z,32.27
2023-01-29T11:39:21.927Z,31.83
2023-01-29T11:41:54.890Z,33.07
2023-01-29T11:44:28.169Z,35.07
2023-01-29T11:46:56.294Z,36.33
2023-01-29T11:49:32.088Z,33.73
2023-01-29T11:52:01.872Z,30.93
2023-01-29T11:54:34.449Z,30.23
2023-01-29T11:57:04.262Z,29.33
2023-01-29T11:59:42.746Z,34.97
2023-01-29T12:02:20.375Z,32.37
2023-01-29T12:04:48.660Z,30.10
2023-01-29T12:07:17.855Z,33.33
2023-01-29T12:09:51.438Z,31.23
2023-01-29T12:12:30.177Z,33.60
2023-01-29T12:15:15.718Z,30.83
2023-01-29T12:17:45.214Z,30.63
2023-01-29T12:20:16.425Z,30.73
2023-01-29T12:22:48.578Z,33.57
2023-01-29T12:25:22.222Z,28.00
2023-01-29T12:27:56.718Z,32.40
2023-01-29T12:30:27.215Z,30.53
2023-01-29T12:32:59.439Z,37.07
2023-01-29T12:35:30.848Z,34.47
2023-01-29T12:38:01.856Z,33.30
2023-01-29T12:40:33.335Z,38.30
2023-01-29T12:43:05.894Z,35.93
2023-01-29T12:45:34.033Z,38.83
2023-01-29T12:48:03.704Z,37.10
2023-01-29T12:50:34.660Z,43.37
2023-01-29T12:53:06.401Z,37.97
2023-01-29T12:55:38.415Z,40.83
2023-01-29T12:58:13.632Z,37.47
2023-01-29T13:00:43.434Z,40.17
2023-01-29T13:03:18.796Z,40.20
2023-01-29T13:05:48.391Z,44.50
2023-01-29T13:08:20.062Z,40.47
2023-01-29T13:10:50.641Z,41.27
2023-01-29T13:13:25.618Z,45.07
2023-01-29T13:15:53.820Z,45.50
2023-01-29T13:18:34.726Z,44.30
2023-01-29T13:21:02.422Z,51.40
2023-01-29T13:23:35.218Z,42.53
2023-01-29T13:26:03.812Z,39.70
2023-01-29T13:28:33.130Z,49.63
2023-01-29T13:31:31.660Z,42.30
2023-01-29T13:34:11.089Z,42.50
2023-01-29T13:36:43.486Z,40.80
2023-01-29T13:39:20.620Z,44.07
2023-01-29T13:41:48.305Z,56.07
2023-01-29T13:44:26.268Z,55.80
2023-01-29T13:46:57.682Z,50.90
2023-01-29T13:49:35.781Z,51.37
2023-01-29T13:52:18.710Z,50.00
2023-01-29T13:54:53.346Z,53.23
2023-01-29T13:57:56.310Z,57.93
2023-01-29T14:00:59.291Z,54.87
2023-01-29T14:04:04.509Z,55.93
2023-01-29T14:06:56.836Z,60.23
2023-01-29T14:10:03.217Z,62.77
2023-01-29T14:12:37.824Z,61.83
2023-01-29T14:15:19.920Z,67.43
2023-01-29T14:18:05.092Z,67.83
2023-01-29T14:20:45.483Z,60.67
2023-01-29T14:23:23.874Z,62.10
2023-01-29T14:25:51.763Z,60.43
2023-01-29T14:28:23.438Z,61.10
2023-01-29T14:30:51.755Z,60.00
2023-01-29T14:33:28.115Z,59.57
2023-01-29T14:35:57.612Z,54.63
2023-01-29T14:38:27.274Z,53.70
2023-01-29T14:41:09.006Z,57.00
2023-01-29T14:43:36.692Z,58.90
2023-01-29T14:46:51.865Z,51.97
2023-01-29T14:49:51.394Z,55.80
2023-01-29T14:52:20.528Z,52.63
2023-01-29T14:54:49.607Z,62.37
2023-01-29T14:57:18.358Z,53.10
2023-01-29T14:59:50.687Z,51.27
2023-01-29T15:02:20.529Z,59.33
2023-01-29T15:04:52.095Z,51.80
2023-01-29T15:07:26.849Z,55.87
2023-01-29T15:10:13.565Z,54.70
2023-01-29T15:12:50.282Z,53.03
2023-01-29T15:15:21.628Z,56.53
2023-01-29T15:17:55.929Z,57.47
2023-01-29T15:20:33.388Z,53.07
2023-01-29T15:23:03.168Z,54.37
2023-01-29T15:25:36.352Z,54.70
2023-01-29T15:28:08.426Z,61.63
2023-01-29T15:30:36.905Z,57.40
2023-01-29T15:33:05.054Z,53.87
2023-01-29T15:35:36.690Z,59.47
2023-01-29T15:38:06.618Z,60.47
2023-01-29T15:40:34.477Z,61.37
2023-01-29T15:43:02.226Z,57.27
2023-01-29T15:45:31.952Z,60.97
2023-01-29T15:48:03.897Z,57.10
2023-01-29T15:50:34.330Z,61.67
2023-01-29T15:53:05.201Z,54.70
2023-01-29T15:55:33.125Z,57.70
2023-01-29T15:58:01.348Z,59.40
2023-01-29T16:00:30.353Z,57.07
2023-01-29T16:03:00.627Z,59.97
2023-01-29T16:05:29.971Z,58.77
2023-01-29T16:08:00.421Z,58.80
2023-01-29T16:10:29.840Z,59.47
2023-01-29T16:12:58.804Z,58.17
2023-01-29T16:15:32.429Z,60.83
2023-01-29T16:18:01.623Z,65.57
2023-01-29T16:20:36.379Z,63.70
2023-01-29T16:23:06.219Z,64.03
2023-01-29T16:25:35.789Z,58.20
2023-01-29T16:28:05.649Z,57.50
2023-01-29T16:30:33.460Z,70.73
2023-01-29T16:33:04.867Z,56.80
2023-01-29T16:35:32.721Z,65.30
2023-01-29T16:38:05.839Z,57.67
2023-01-29T16:40:35.127Z,59.10
2023-01-29T16:43:45.986Z,56.87
2023-01-29T16:46:19.804Z,54.67
2023-01-29T16:48:47.908Z,51.73
2023-01-29T16:51:20.400Z,53.77
2023-01-29T16:53:57.412Z,54.03
2023-01-29T16:56:26.016Z,54.20
2023-01-29T16:58:54.527Z,49.83
2023-01-29T17:01:24.471Z,47.10
2023-01-29T17:03:58.109Z,49.47
2023-01-29T17:06:27.308Z,48.60
2023-01-29T17:08:56.706Z,52.70
2023-01-29T17:11:28.863Z,51.87
2023-01-29T17:13:57.432Z,51.40
2023-01-29T17:16:28.998Z,54.70
2023-01-29T17:18:57.677Z,46.70
2023-01-29T17:21:25.696Z,52.47
2023-01-29T17:23:54.155Z,50.63
2023-01-29T17:26:24.750Z,48.53
2023-01-29T17:28:53.060Z,48.47
2023-01-29T17:31:21.109Z,55.33
2023-01-29T17:33:49.126Z,52.23
2023-01-29T17:36:18.192Z,52.50
2023-01-29T17:38:46.040Z,50.27
2023-01-29T17:41:17.467Z,54.03
2023-01-29T17:43:46.482Z,50.07
2023-01-29T17:46:16.214Z,47.73
2023-01-29T17:48:44.285Z,56.47
2023-01-29T17:51:14.350Z,52.13
2023-01-29T17:53:46.005Z,53.10
2023-01-29T17:56:17.926Z,54.93
2023-01-29T17:58:46.967Z,51.03
2023-01-29T18:01:14.669Z,52.40
2023-01-29T18:03:42.408Z,50.40
2023-01-29T18:06:10.828Z,52.17
2023-01-29T18:08:39.481Z,57.50
2023-01-29T18:11:07.300Z,55.83
2023-01-29T18:13:36.111Z,55.47
2023-01-29T18:16:05.573Z,51.80
2023-01-29T18:18:33.329Z,48.87
2023-01-29T18:21:00.993Z,50.23
2023-01-29T18:23:29.404Z,53.63
2023-01-29T18:25:57.727Z,53.57
2023-01-29T18:28:26.004Z,49.70
2023-01-29T18:30:53.856Z,51.87
2023-01-29T18:33:24.148Z,53.63
2023-01-29T18:35:51.845Z,52.47
2023-01-29T18:38:19.591Z,53.00
2023-01-29T18:40:47.314Z,51.57
2023-01-29T18:43:15.462Z,58.20
2023-01-29T18:45:43.647Z,54.13
2023-01-29T18:48:11.368Z,54.67
2023-01-29T18:50:40.429Z,54.77
2023-01-29T18:53:08.171Z,52.93
2023-01-29T18:55:35.878Z,51.00
2023-01-29T18:58:26.897Z,55.10
2023-01-29T19:00:51.397Z,51.17
2023-01-29T19:03:19.153Z,49.80
2023-01-29T19:05:48.203Z,55.73
2023-01-29T19:08:15.967Z,51.40
2023-01-29T19:10:43.634Z,51.23
2023-01-29T19:13:11.318Z,55.30
2023-01-29T19:15:43.020Z,51.87
2023-01-29T19:18:14.702Z,49.57
2023-01-29T19:20:42.935Z,53.07
2023-01-29T19:23:11.951Z,55.90
2023-01-29T19:25:40.393Z,56.63
2023-01-29T19:28:09.012Z,52.20
2023-01-29T19:30:36.848Z,50.43
2023-01-29T19:33:04.800Z,57.90
2023-01-29T19:35:33.439Z,54.53
2023-01-29T19:38:01.501Z,50.63
2023-01-29T19:40:30.543Z,50.63
2023-01-29T19:42:58.695Z,57.87
2023-01-29T19:45:48.925Z,52.20
2023-01-29T19:48:14.758Z,55.27
2023-01-29T19:50:42.529Z,50.43
2023-01-29T19:53:10.342Z,52.20
2023-01-29T19:55:39.403Z,51.87
2023-01-29T19:58:07.063Z,53.83
2023-01-29T20:00:34.794Z,55.87
2023-01-29T20:03:02.470Z,50.60
2023-01-29T20:05:30.143Z,53.87
2023-01-29T20:07:57.832Z,55.63
2023-01-29T20:10:25.635Z,56.57
2023-01-29T20:12:54.669Z,51.07
2023-01-29T20:15:22.580Z,56.47
2023-01-29T20:17:50.295Z,51.77
2023-01-29T20:20:18.419Z,51.50
2023-01-29T20:22:46.312Z,56.03
2023-01-29T20:25:14.435Z,49.27
2023-01-29T20:27:42.444Z,55.43
2023-01-29T20:30:12.900Z,52.57
2023-01-29T20:32:40.713Z,57.73
2023-01-29T20:35:09.848Z,49.13
2023-01-29T20:37:37.551Z,55.10
2023-01-29T20:40:06.075Z,50.90
2023-01-29T20:42:33.814Z,48.20
2023-01-29T20:45:01.500Z,50.13
2023-01-29T20:47:30.608Z,51.37
2023-01-29T20:49:58.284Z,49.23
2023-01-29T20:52:26.290Z,45.47
2023-01-29T20:54:54.253Z,51.73
2023-01-29T20:57:22.011Z,50.57
2023-01-29T20:59:50.091Z,49.63
2023-01-29T21:02:17.784Z,40.63
2023-01-29T21:04:46.805Z,48.97
2023-01-29T21:07:14.449Z,43.53
2023-01-29T21:09:42.226Z,50.97
2023-01-29T21:12:09.941Z,50.13
2023-01-29T21:14:37.691Z,48.10
2023-01-29T21:17:06.086Z,45.10
2023-01-29T21:19:34.025Z,49.10
2023-01-29T21:22:03.035Z,49.47
2023-01-29T21:24:30.759Z,46.33
2023-01-29T21:26:58.435Z,49.57
2023-01-29T21:29:26.161Z,45.40
2023-01-29T21:31:53.913Z,51.30
2023-01-29T21:34:21.711Z,50.03
2023-01-29T21:36:49.380Z,49.10
2023-01-29T21:39:20.546Z,49.23
2023-01-29T21:42:07.588Z,49.97
2023-01-29T21:44:35.927Z,53.10
2023-01-29T21:47:12.234Z,45.83
2023-01-29T21:49:41.420Z,46.40
2023-01-29T21:52:09.882Z,50.53
2023-01-29T21:54:39.886Z,50.67
2023-01-29T21:57:11.060Z,46.63
2023-01-29T21:59:38.802Z,51.23
2023-01-29T22:02:06.550Z,48.33
2023-01-29T22:04:34.423Z,51.60
2023-01-29T22:07:02.105Z,46.63
2023-01-29T22:09:30.007Z,48.87
2023-01-29T22:11:59.153Z,47.47
2023-01-29T22:14:26.811Z,43.57
2023-01-29T22:16:54.581Z,47.07
2023-01-29T22:19:23.459Z,49.93
2023-01-29T22:21:52.748Z,51.10
2023-01-29T22:24:21.319Z,54.03
2023-01-29T22:26:49.643Z,51.47
2023-01-29T22:29:19.565Z,56.33
2023-01-29T22:31:47.682Z,51.33
2023-01-29T22:34:15.760Z,51.80
2023-01-29T22:36:43.413Z,54.20
2023-01-29T22:39:11.580Z,56.80
2023-01-29T22:41:39.267Z,55.20
2023-01-29T22:44:06.987Z,60.70
2023-01-29T22:46:36.181Z,59.47
2023-01-29T22:49:03.872Z,51.93
2023-01-29T22:51:31.597Z,53.67
2023-01-29T22:53:59.327Z,62.73
2023-01-29T22:56:29.539Z,57.03
2023-01-29T22:58:58.567Z,60.03
2023-01-29T23:01:27.754Z,64.37
2023-01-29T23:03:57.030Z,60.30
2023-01-29T23:06:25.088Z,57.73
2023-01-29T23:08:52.997Z,67.43
2023-01-29T23:11:23.564Z,56.60
2023-01-29T23:13:53.278Z,60.97
2023-01-29T23:16:22.875Z,60.57
2023-01-29T23:18:51.401Z,56.83
2023-01-29T23:21:21.462Z,58.70
2023-01-29T23:23:49.574Z,58.70
2023-01-29T23:26:34.923Z,60.53
2023-01-29T23:29:04.274Z,62.93
2023-01-29T23:31:32.591Z,62.17
2023-01-29T23:34:00.356Z,60.70
2023-01-29T23:36:29.447Z,57.97
2023-01-29T23:38:57.144Z,56.67
2023-01-29T23:41:24.882Z,68.57
2023-01-29T23:43:52.936Z,64.73
2023-01-29T23:46:20.627Z,65.87
2023-01-29T23:48:48.397Z,59.83
2023-01-29T23:51:16.022Z,61.97
2023-01-29T23:53:45.085Z,71.77
2023-01-29T23:56:12.884Z,63.80
2023-01-29T23:58:40.633Z,64.17
